sensor_id;sensor_type;location;lat;lon;timestamp;P1;durP1;ratioP1;P2;durP2;ratioP2
33094;SDS011;19459;53.044;8.910;2023-09-19T00:00:37;6.18;;;3.65;;
33094;SDS011;19459;53.044;8.910;2023-09-19T00:03:06;11.43;;;4.60;;
33094;SDS011;19459;53.044;8.910;2023-09-19T00:05:34;4.30;;;3.53;;
33094;SDS011;19459;53.044;8.910;2023-09-19T00:08:03;6.90;;;3.88;;
33094;SDS011;19459;53.044;8.910;2023-09-19T00:10:31;13.10;;;4.60;;
33094;SDS011;19459;53.044;8.910;2023-09-19T00:13:00;15.55;;;5.45;;
33094;SDS011;19459;53.044;8.910;2023-09-19T00:15:30;13.38;;;4.13;;
33094;SDS011;19459;53.044;8.910;2023-09-19T00:18:02;7.97;;;3.92;;
33094;SDS011;19459;53.044;8.910;2023-09-19T00:20:35;12.77;;;4.75;;
33094;SDS011;19459;53.044;8.910;2023-09-19T00:23:01;8.57;;;3.95;;
33094;SDS011;19459;53.044;8.910;2023-09-19T00:25:31;9.07;;;3.75;;
33094;SDS011;19459;53.044;8.910;2023-09-19T00:28:00;7.22;;;3.80;;
33094;SDS011;19459;53.044;8.910;2023-09-19T00:30:26;6.93;;;3.67;;
33094;SDS011;19459;53.044;8.910;2023-09-19T00:32:52;8.10;;;4.22;;
33094;SDS011;19459;53.044;8.910;2023-09-19T00:35:18;8.40;;;3.50;;
33094;SDS011;19459;53.044;8.910;2023-09-19T00:37:44;9.88;;;3.72;;
33094;SDS011;19459;53.044;8.910;2023-09-19T00:40:10;10.70;;;3.72;;
33094;SDS011;19459;53.044;8.910;2023-09-19T00:42:37;7.28;;;3.90;;
33094;SDS011;19459;53.044;8.910;2023-09-19T00:45:05;16.40;;;4.15;;
33094;SDS011;19459;53.044;8.910;2023-09-19T00:47:37;9.35;;;3.65;;
33094;SDS011;19459;53.044;8.910;2023-09-19T00:50:09;7.63;;;3.47;;
33094;SDS011;19459;53.044;8.910;2023-09-19T00:52:36;11.35;;;4.05;;
33094;SDS011;19459;53.044;8.910;2023-09-19T00:55:07;8.70;;;4.13;;
33094;SDS011;19459;53.044;8.910;2023-09-19T00:57:34;12.00;;;4.10;;
33094;SDS011;19459;53.044;8.910;2023-09-19T01:00:03;8.85;;;4.00;;
33094;SDS011;19459;53.044;8.910;2023-09-19T01:02:32;10.27;;;3.13;;
33094;SDS011;19459;53.044;8.910;2023-09-19T01:04:58;9.13;;;4.10;;
33094;SDS011;19459;53.044;8.910;2023-09-19T01:07:26;6.68;;;3.65;;
33094;SDS011;19459;53.044;8.910;2023-09-19T01:09:55;5.95;;;3.63;;
33094;SDS011;19459;53.044;8.910;2023-09-19T01:12:30;7.95;;;3.20;;
33094;SDS011;19459;53.044;8.910;2023-09-19T01:15:21;9.48;;;3.78;;
33094;SDS011;19459;53.044;8.910;2023-09-19T01:23:11;7.43;;;3.40;;
33094;SDS011;19459;53.044;8.910;2023-09-19T01:26:17;13.30;;;4.50;;
33094;SDS011;19459;53.044;8.910;2023-09-19T01:32:09;13.82;;;2.78;;
33094;SDS011;19459;53.044;8.910;2023-09-19T01:37:18;8.10;;;2.92;;
33094;SDS011;19459;53.044;8.910;2023-09-19T01:40:02;8.80;;;2.45;;
33094;SDS011;19459;53.044;8.910;2023-09-19T01:42:58;5.55;;;2.17;;
33094;SDS011;19459;53.044;8.910;2023-09-19T01:45:37;4.53;;;1.83;;
33094;SDS011;19459;53.044;8.910;2023-09-19T01:51:07;3.63;;;1.30;;
33094;SDS011;19459;53.044;8.910;2023-09-19T01:53:51;5.85;;;1.80;;
33094;SDS011;19459;53.044;8.910;2023-09-19T01:57:13;7.18;;;1.95;;
33094;SDS011;19459;53.044;8.910;2023-09-19T01:59:24;8.23;;;1.92;;
33094;SDS011;19459;53.044;8.910;2023-09-19T02:01:57;3.80;;;2.03;;
33094;SDS011;19459;53.044;8.910;2023-09-19T02:04:24;5.13;;;1.90;;
33094;SDS011;19459;53.044;8.910;2023-09-19T02:06:51;6.30;;;1.70;;
33094;SDS011;19459;53.044;8.910;2023-09-19T02:09:18;4.03;;;1.52;;
33094;SDS011;19459;53.044;8.910;2023-09-19T02:11:44;2.20;;;1.60;;
33094;SDS011;19459;53.044;8.910;2023-09-19T02:14:11;5.35;;;1.60;;
33094;SDS011;19459;53.044;8.910;2023-09-19T02:16:37;3.55;;;1.45;;
33094;SDS011;19459;53.044;8.910;2023-09-19T02:19:03;2.50;;;1.52;;
33094;SDS011;19459;53.044;8.910;2023-09-19T02:21:32;5.10;;;1.60;;
33094;SDS011;19459;53.044;8.910;2023-09-19T02:23:58;5.53;;;1.38;;
33094;SDS011;19459;53.044;8.910;2023-09-19T02:26:24;5.43;;;1.83;;
33094;SDS011;19459;53.044;8.910;2023-09-19T02:28:50;2.92;;;1.75;;
33094;SDS011;19459;53.044;8.910;2023-09-19T02:31:16;8.20;;;1.90;;
33094;SDS011;19459;53.044;8.910;2023-09-19T02:33:42;4.85;;;1.60;;
33094;SDS011;19459;53.044;8.910;2023-09-19T02:36:08;3.65;;;1.40;;
33094;SDS011;19459;53.044;8.910;2023-09-19T02:38:34;4.97;;;1.83;;
33094;SDS011;19459;53.044;8.910;2023-09-19T02:41:00;6.85;;;1.60;;
33094;SDS011;19459;53.044;8.910;2023-09-19T02:43:26;6.40;;;1.80;;
33094;SDS011;19459;53.044;8.910;2023-09-19T02:45:52;5.93;;;1.67;;
33094;SDS011;19459;53.044;8.910;2023-09-19T02:48:19;7.38;;;2.22;;
33094;SDS011;19459;53.044;8.910;2023-09-19T02:50:54;8.05;;;1.50;;
33094;SDS011;19459;53.044;8.910;2023-09-19T02:53:20;8.50;;;1.65;;
33094;SDS011;19459;53.044;8.910;2023-09-19T02:55:47;7.65;;;1.58;;
33094;SDS011;19459;53.044;8.910;2023-09-19T02:58:13;4.50;;;1.80;;
33094;SDS011;19459;53.044;8.910;2023-09-19T03:00:39;7.85;;;1.73;;
33094;SDS011;19459;53.044;8.910;2023-09-19T03:03:07;6.63;;;2.08;;
33094;SDS011;19459;53.044;8.910;2023-09-19T03:05:33;6.03;;;1.85;;
33094;SDS011;19459;53.044;8.910;2023-09-19T03:07:59;10.25;;;2.42;;
33094;SDS011;19459;53.044;8.910;2023-09-19T03:10:26;8.75;;;2.28;;
33094;SDS011;19459;53.044;8.910;2023-09-19T03:12:53;5.47;;;1.40;;
33094;SDS011;19459;53.044;8.910;2023-09-19T03:15:19;3.78;;;2.38;;
33094;SDS011;19459;53.044;8.910;2023-09-19T03:17:46;7.95;;;1.92;;
33094;SDS011;19459;53.044;8.910;2023-09-19T03:20:14;8.27;;;1.90;;
33094;SDS011;19459;53.044;8.910;2023-09-19T03:22:43;6.03;;;2.00;;
33094;SDS011;19459;53.044;8.910;2023-09-19T03:25:10;6.68;;;2.35;;
33094;SDS011;19459;53.044;8.910;2023-09-19T03:27:37;6.93;;;1.80;;
33094;SDS011;19459;53.044;8.910;2023-09-19T03:30:04;9.65;;;1.92;;
33094;SDS011;19459;53.044;8.910;2023-09-19T03:32:34;8.55;;;2.10;;
33094;SDS011;19459;53.044;8.910;2023-09-19T03:35:01;10.80;;;2.03;;
33094;SDS011;19459;53.044;8.910;2023-09-19T03:37:30;9.27;;;2.92;;
33094;SDS011;19459;53.044;8.910;2023-09-19T03:39:58;7.25;;;2.50;;
33094;SDS011;19459;53.044;8.910;2023-09-19T03:42:23;9.40;;;3.45;;
33094;SDS011;19459;53.044;8.910;2023-09-19T03:44:51;10.77;;;2.83;;
33094;SDS011;19459;53.044;8.910;2023-09-19T03:47:17;12.30;;;2.65;;
33094;SDS011;19459;53.044;8.910;2023-09-19T03:49:46;5.90;;;2.13;;
33094;SDS011;19459;53.044;8.910;2023-09-19T03:52:12;10.88;;;2.97;;
33094;SDS011;19459;53.044;8.910;2023-09-19T03:54:38;7.28;;;2.08;;
33094;SDS011;19459;53.044;8.910;2023-09-19T03:57:06;15.38;;;2.95;;
33094;SDS011;19459;53.044;8.910;2023-09-19T03:59:32;8.75;;;2.13;;
33094;SDS011;19459;53.044;8.910;2023-09-19T04:01:58;8.65;;;2.83;;
33094;SDS011;19459;53.044;8.910;2023-09-19T04:04:24;8.52;;;2.63;;
33094;SDS011;19459;53.044;8.910;2023-09-19T04:06:53;13.73;;;2.80;;
33094;SDS011;19459;53.044;8.910;2023-09-19T04:09:19;7.60;;;2.65;;
33094;SDS011;19459;53.044;8.910;2023-09-19T04:11:44;12.52;;;2.88;;
33094;SDS011;19459;53.044;8.910;2023-09-19T04:14:10;12.45;;;2.72;;
33094;SDS011;19459;53.044;8.910;2023-09-19T04:16:36;11.20;;;3.75;;
33094;SDS011;19459;53.044;8.910;2023-09-19T04:19:02;13.02;;;2.95;;
33094;SDS011;19459;53.044;8.910;2023-09-19T04:21:28;11.70;;;2.80;;
33094;SDS011;19459;53.044;8.910;2023-09-19T04:23:54;12.10;;;3.05;;
33094;SDS011;19459;53.044;8.910;2023-09-19T04:26:20;14.38;;;3.83;;
33094;SDS011;19459;53.044;8.910;2023-09-19T04:28:46;7.78;;;3.40;;
33094;SDS011;19459;53.044;8.910;2023-09-19T04:31:12;12.27;;;3.05;;
33094;SDS011;19459;53.044;8.910;2023-09-19T04:33:39;8.43;;;3.50;;
33094;SDS011;19459;53.044;8.910;2023-09-19T04:36:06;19.75;;;4.70;;
33094;SDS011;19459;53.044;8.910;2023-09-19T04:38:32;13.07;;;3.20;;
33094;SDS011;19459;53.044;8.910;2023-09-19T04:40:58;14.18;;;4.35;;
33094;SDS011;19459;53.044;8.910;2023-09-19T04:43:25;12.35;;;3.72;;
33094;SDS011;19459;53.044;8.910;2023-09-19T04:45:51;19.40;;;4.78;;
33094;SDS011;19459;53.044;8.910;2023-09-19T04:48:21;20.92;;;3.15;;
33094;SDS011;19459;53.044;8.910;2023-09-19T04:50:50;13.95;;;3.10;;
33094;SDS011;19459;53.044;8.910;2023-09-19T04:53:17;15.52;;;3.55;;
33094;SDS011;19459;53.044;8.910;2023-09-19T04:55:49;16.00;;;4.32;;
33094;SDS011;19459;53.044;8.910;2023-09-19T04:58:17;14.60;;;3.80;;
33094;SDS011;19459;53.044;8.910;2023-09-19T05:00:45;15.57;;;2.97;;
33094;SDS011;19459;53.044;8.910;2023-09-19T05:03:10;13.95;;;3.20;;
33094;SDS011;19459;53.044;8.910;2023-09-19T05:05:36;14.98;;;3.03;;
33094;SDS011;19459;53.044;8.910;2023-09-19T05:08:03;14.13;;;3.03;;
33094;SDS011;19459;53.044;8.910;2023-09-19T05:10:30;18.35;;;3.70;;
33094;SDS011;19459;53.044;8.910;2023-09-19T05:12:57;12.85;;;3.85;;
33094;SDS011;19459;53.044;8.910;2023-09-19T05:15:23;17.10;;;3.83;;
33094;SDS011;19459;53.044;8.910;2023-09-19T05:17:52;14.07;;;3.53;;
33094;SDS011;19459;53.044;8.910;2023-09-19T05:20:20;12.15;;;3.47;;
33094;SDS011;19459;53.044;8.910;2023-09-19T05:25:28;11.07;;;3.03;;
33094;SDS011;19459;53.044;8.910;2023-09-19T05:27:57;17.05;;;3.25;;
33094;SDS011;19459;53.044;8.910;2023-09-19T05:30:25;20.08;;;4.03;;
33094;SDS011;19459;53.044;8.910;2023-09-19T05:32:52;16.63;;;3.55;;
33094;SDS011;19459;53.044;8.910;2023-09-19T05:35:19;18.33;;;3.78;;
33094;SDS011;19459;53.044;8.910;2023-09-19T05:37:47;15.32;;;4.10;;
33094;SDS011;19459;53.044;8.910;2023-09-19T05:40:16;11.70;;;3.40;;
33094;SDS011;19459;53.044;8.910;2023-09-19T05:42:45;13.80;;;3.45;;
33094;SDS011;19459;53.044;8.910;2023-09-19T05:45:11;13.52;;;3.60;;
33094;SDS011;19459;53.044;8.910;2023-09-19T05:47:39;17.20;;;4.07;;
33094;SDS011;19459;53.044;8.910;2023-09-19T05:50:06;17.00;;;3.42;;
33094;SDS011;19459;53.044;8.910;2023-09-19T05:52:36;29.83;;;3.72;;
33094;SDS011;19459;53.044;8.910;2023-09-19T05:55:03;13.70;;;3.22;;
33094;SDS011;19459;53.044;8.910;2023-09-19T05:57:31;20.42;;;4.65;;
33094;SDS011;19459;53.044;8.910;2023-09-19T06:00:00;10.50;;;4.10;;
33094;SDS011;19459;53.044;8.910;2023-09-19T06:02:26;13.60;;;3.67;;
33094;SDS011;19459;53.044;8.910;2023-09-19T06:04:54;16.20;;;4.13;;
33094;SDS011;19459;53.044;8.910;2023-09-19T06:07:21;12.65;;;3.35;;
33094;SDS011;19459;53.044;8.910;2023-09-19T06:09:51;16.13;;;4.10;;
33094;SDS011;19459;53.044;8.910;2023-09-19T06:12:20;16.63;;;4.38;;
33094;SDS011;19459;53.044;8.910;2023-09-19T06:14:46;19.67;;;4.40;;
33094;SDS011;19459;53.044;8.910;2023-09-19T06:17:13;12.38;;;3.47;;
33094;SDS011;19459;53.044;8.910;2023-09-19T06:19:39;14.50;;;3.70;;
33094;SDS011;19459;53.044;8.910;2023-09-19T06:22:06;20.10;;;3.65;;
33094;SDS011;19459;53.044;8.910;2023-09-19T06:24:32;12.82;;;3.40;;
33094;SDS011;19459;53.044;8.910;2023-09-19T06:26:58;15.77;;;4.25;;
33094;SDS011;19459;53.044;8.910;2023-09-19T06:29:26;13.15;;;3.97;;
33094;SDS011;19459;53.044;8.910;2023-09-19T06:31:51;15.57;;;3.55;;
33094;SDS011;19459;53.044;8.910;2023-09-19T06:34:17;13.57;;;3.63;;
33094;SDS011;19459;53.044;8.910;2023-09-19T06:36:43;14.82;;;3.63;;
33094;SDS011;19459;53.044;8.910;2023-09-19T06:39:10;18.42;;;4.72;;
33094;SDS011;19459;53.044;8.910;2023-09-19T06:41:36;16.90;;;3.45;;
33094;SDS011;19459;53.044;8.910;2023-09-19T06:44:04;14.65;;;4.75;;
33094;SDS011;19459;53.044;8.910;2023-09-19T06:46:30;9.60;;;2.97;;
33094;SDS011;19459;53.044;8.910;2023-09-19T06:49:00;24.33;;;4.85;;
33094;SDS011;19459;53.044;8.910;2023-09-19T06:51:31;18.90;;;4.05;;
33094;SDS011;19459;53.044;8.910;2023-09-19T06:53:59;17.73;;;3.17;;
33094;SDS011;19459;53.044;8.910;2023-09-19T06:56:26;17.17;;;4.88;;
33094;SDS011;19459;53.044;8.910;2023-09-19T06:58:52;11.40;;;3.08;;
33094;SDS011;19459;53.044;8.910;2023-09-19T07:01:18;17.85;;;3.97;;
33094;SDS011;19459;53.044;8.910;2023-09-19T07:03:44;18.23;;;4.13;;
33094;SDS011;19459;53.044;8.910;2023-09-19T07:06:11;20.85;;;3.50;;
33094;SDS011;19459;53.044;8.910;2023-09-19T07:08:36;18.77;;;3.63;;
33094;SDS011;19459;53.044;8.910;2023-09-19T07:11:03;16.10;;;4.15;;
33094;SDS011;19459;53.044;8.910;2023-09-19T07:13:31;16.45;;;3.58;;
33094;SDS011;19459;53.044;8.910;2023-09-19T07:15:58;19.10;;;3.60;;
33094;SDS011;19459;53.044;8.910;2023-09-19T07:18:24;13.25;;;3.28;;
33094;SDS011;19459;53.044;8.910;2023-09-19T07:20:50;17.88;;;4.15;;
33094;SDS011;19459;53.044;8.910;2023-09-19T07:23:20;20.13;;;3.28;;
33094;SDS011;19459;53.044;8.910;2023-09-19T07:25:51;15.35;;;3.30;;
33094;SDS011;19459;53.044;8.910;2023-09-19T07:28:17;17.05;;;4.10;;
33094;SDS011;19459;53.044;8.910;2023-09-19T07:30:43;11.27;;;3.25;;
33094;SDS011;19459;53.044;8.910;2023-09-19T07:33:09;11.55;;;3.50;;
33094;SDS011;19459;53.044;8.910;2023-09-19T07:35:37;15.65;;;4.70;;
33094;SDS011;19459;53.044;8.910;2023-09-19T07:38:07;22.27;;;5.05;;
33094;SDS011;19459;53.044;8.910;2023-09-19T07:40:35;16.10;;;2.78;;
33094;SDS011;19459;53.044;8.910;2023-09-19T07:43:01;12.02;;;2.95;;
33094;SDS011;19459;53.044;8.910;2023-09-19T07:45:29;14.63;;;3.30;;
33094;SDS011;19459;53.044;8.910;2023-09-19T07:47:56;10.25;;;2.65;;
33094;SDS011;19459;53.044;8.910;2023-09-19T07:50:22;13.63;;;3.85;;
33094;SDS011;19459;53.044;8.910;2023-09-19T07:52:49;10.38;;;2.75;;
33094;SDS011;19459;53.044;8.910;2023-09-19T07:55:19;12.88;;;2.85;;
33094;SDS011;19459;53.044;8.910;2023-09-19T07:57:48;16.20;;;3.00;;
33094;SDS011;19459;53.044;8.910;2023-09-19T08:00:14;21.08;;;3.88;;
33094;SDS011;19459;53.044;8.910;2023-09-19T08:02:41;12.10;;;2.70;;
33094;SDS011;19459;53.044;8.910;2023-09-19T08:05:08;14.85;;;2.80;;
33094;SDS011;19459;53.044;8.910;2023-09-19T08:07:38;20.95;;;3.95;;
33094;SDS011;19459;53.044;8.910;2023-09-19T08:10:11;14.32;;;3.85;;
33094;SDS011;19459;53.044;8.910;2023-09-19T08:12:38;15.57;;;3.78;;
33094;SDS011;19459;53.044;8.910;2023-09-19T08:15:15;19.33;;;3.28;;
33094;SDS011;19459;53.044;8.910;2023-09-19T08:17:44;12.40;;;2.80;;
33094;SDS011;19459;53.044;8.910;2023-09-19T08:20:11;20.15;;;3.88;;
33094;SDS011;19459;53.044;8.910;2023-09-19T08:22:48;12.32;;;2.95;;
33094;SDS011;19459;53.044;8.910;2023-09-19T08:25:17;13.10;;;2.75;;
33094;SDS011;19459;53.044;8.910;2023-09-19T08:27:47;13.98;;;2.70;;
33094;SDS011;19459;53.044;8.910;2023-09-19T08:30:18;12.00;;;3.60;;
33094;SDS011;19459;53.044;8.910;2023-09-19T08:32:49;16.10;;;3.50;;
33094;SDS011;19459;53.044;8.910;2023-09-19T08:35:18;13.60;;;3.55;;
33094;SDS011;19459;53.044;8.910;2023-09-19T08:37:44;16.88;;;3.45;;
33094;SDS011;19459;53.044;8.910;2023-09-19T08:40:11;21.40;;;3.85;;
33094;SDS011;19459;53.044;8.910;2023-09-19T08:42:49;11.73;;;4.18;;
33094;SDS011;19459;53.044;8.910;2023-09-19T08:45:20;12.60;;;3.45;;
33094;SDS011;19459;53.044;8.910;2023-09-19T08:50:49;13.85;;;2.83;;
33094;SDS011;19459;53.044;8.910;2023-09-19T08:53:41;16.40;;;2.63;;
33094;SDS011;19459;53.044;8.910;2023-09-19T08:56:14;27.58;;;3.05;;
33094;SDS011;19459;53.044;8.910;2023-09-19T08:59:26;9.68;;;3.05;;
33094;SDS011;19459;53.044;8.910;2023-09-19T09:01:33;12.93;;;2.63;;
33094;SDS011;19459;53.044;8.910;2023-09-19T09:04:01;14.30;;;2.65;;
33094;SDS011;19459;53.044;8.910;2023-09-19T09:06:28;13.05;;;3.33;;
33094;SDS011;19459;53.044;8.910;2023-09-19T09:08:54;12.93;;;2.92;;
33094;SDS011;19459;53.044;8.910;2023-09-19T09:11:21;12.70;;;3.20;;
33094;SDS011;19459;53.044;8.910;2023-09-19T09:13:49;14.40;;;3.28;;
33094;SDS011;19459;53.044;8.910;2023-09-19T09:16:15;18.10;;;4.20;;
33094;SDS011;19459;53.044;8.910;2023-09-19T09:18:45;8.88;;;2.75;;
33094;SDS011;19459;53.044;8.910;2023-09-19T09:21:12;11.20;;;2.65;;
33094;SDS011;19459;53.044;8.910;2023-09-19T09:23:39;13.90;;;3.40;;
33094;SDS011;19459;53.044;8.910;2023-09-19T09:26:05;9.13;;;3.00;;
33094;SDS011;19459;53.044;8.910;2023-09-19T09:28:32;14.30;;;3.00;;
33094;SDS011;19459;53.044;8.910;2023-09-19T09:31:01;8.95;;;2.55;;
33094;SDS011;19459;53.044;8.910;2023-09-19T09:33:34;10.68;;;2.50;;
33094;SDS011;19459;53.044;8.910;2023-09-19T09:36:01;8.48;;;2.47;;
33094;SDS011;19459;53.044;8.910;2023-09-19T09:38:42;12.40;;;2.67;;
33094;SDS011;19459;53.044;8.910;2023-09-19T09:41:10;14.85;;;2.47;;
33094;SDS011;19459;53.044;8.910;2023-09-19T09:43:40;10.00;;;2.17;;
33094;SDS011;19459;53.044;8.910;2023-09-19T09:51:39;15.07;;;2.72;;
33094;SDS011;19459;53.044;8.910;2023-09-19T09:54:17;14.05;;;3.58;;
33094;SDS011;19459;53.044;8.910;2023-09-19T09:56:53;9.45;;;2.47;;
33094;SDS011;19459;53.044;8.910;2023-09-19T10:02:40;13.95;;;3.45;;
33094;SDS011;19459;53.044;8.910;2023-09-19T10:05:14;14.45;;;3.95;;
33094;SDS011;19459;53.044;8.910;2023-09-19T10:07:46;10.00;;;3.00;;
33094;SDS011;19459;53.044;8.910;2023-09-19T10:10:30;15.82;;;3.28;;
33094;SDS011;19459;53.044;8.910;2023-09-19T10:13:11;9.82;;;2.83;;
33094;SDS011;19459;53.044;8.910;2023-09-19T10:15:42;12.02;;;2.80;;
33094;SDS011;19459;53.044;8.910;2023-09-19T10:18:16;13.00;;;3.25;;
33094;SDS011;19459;53.044;8.910;2023-09-19T10:20:51;10.82;;;2.88;;
33094;SDS011;19459;53.044;8.910;2023-09-19T10:23:18;13.05;;;2.78;;
33094;SDS011;19459;53.044;8.910;2023-09-19T10:25:48;11.55;;;2.47;;
33094;SDS011;19459;53.044;8.910;2023-09-19T10:28:15;8.25;;;2.22;;
33094;SDS011;19459;53.044;8.910;2023-09-19T10:30:47;15.95;;;3.70;;
33094;SDS011;19459;53.044;8.910;2023-09-19T10:33:18;12.23;;;3.47;;
33094;SDS011;19459;53.044;8.910;2023-09-19T10:38:24;14.00;;;3.08;;
33094;SDS011;19459;53.044;8.910;2023-09-19T10:40:54;10.70;;;3.20;;
33094;SDS011;19459;53.044;8.910;2023-09-19T10:43:31;15.38;;;2.97;;
33094;SDS011;19459;53.044;8.910;2023-09-19T10:46:00;13.17;;;3.23;;
33094;SDS011;19459;53.044;8.910;2023-09-19T10:48:30;23.10;;;3.25;;
33094;SDS011;19459;53.044;8.910;2023-09-19T10:50:58;14.23;;;2.88;;
33094;SDS011;19459;53.044;8.910;2023-09-19T10:56:36;13.27;;;3.15;;
33094;SDS011;19459;53.044;8.910;2023-09-19T10:59:12;10.88;;;3.40;;
33094;SDS011;19459;53.044;8.910;2023-09-19T11:01:50;17.90;;;3.55;;
33094;SDS011;19459;53.044;8.910;2023-09-19T11:04:23;16.45;;;3.13;;
33094;SDS011;19459;53.044;8.910;2023-09-19T11:14:56;17.60;;;3.08;;
33094;SDS011;19459;53.044;8.910;2023-09-19T11:17:30;12.13;;;4.38;;
33094;SDS011;19459;53.044;8.910;2023-09-19T11:30:41;13.40;;;3.15;;
33094;SDS011;19459;53.044;8.910;2023-09-19T11:36:04;16.52;;;3.45;;
33094;SDS011;19459;53.044;8.910;2023-09-19T11:43:54;12.52;;;3.78;;
33094;SDS011;19459;53.044;8.910;2023-09-19T11:49:17;12.32;;;2.75;;
33094;SDS011;19459;53.044;8.910;2023-09-19T11:51:49;13.73;;;2.83;;
33094;SDS011;19459;53.044;8.910;2023-09-19T11:54:19;11.30;;;3.22;;
33094;SDS011;19459;53.044;8.910;2023-09-19T11:56:50;12.20;;;2.70;;
33094;SDS011;19459;53.044;8.910;2023-09-19T11:59:23;7.20;;;2.65;;
33094;SDS011;19459;53.044;8.910;2023-09-19T12:01:57;9.65;;;3.20;;
33094;SDS011;19459;53.044;8.910;2023-09-19T12:04:39;14.30;;;3.20;;
33094;SDS011;19459;53.044;8.910;2023-09-19T12:07:09;11.25;;;3.28;;
33094;SDS011;19459;53.044;8.910;2023-09-19T12:09:50;14.48;;;2.97;;
33094;SDS011;19459;53.044;8.910;2023-09-19T12:12:29;10.82;;;3.20;;
33094;SDS011;19459;53.044;8.910;2023-09-19T12:14:56;11.65;;;3.05;;
33094;SDS011;19459;53.044;8.910;2023-09-19T12:17:38;14.63;;;2.83;;
33094;SDS011;19459;53.044;8.910;2023-09-19T12:20:06;11.95;;;3.08;;
33094;SDS011;19459;53.044;8.910;2023-09-19T12:22:42;10.52;;;3.47;;
33094;SDS011;19459;53.044;8.910;2023-09-19T12:25:12;12.30;;;2.90;;
33094;SDS011;19459;53.044;8.910;2023-09-19T12:27:44;9.30;;;2.67;;
33094;SDS011;19459;53.044;8.910;2023-09-19T12:30:21;10.18;;;3.17;;
33094;SDS011;19459;53.044;8.910;2023-09-19T12:32:53;11.43;;;4.00;;
33094;SDS011;19459;53.044;8.910;2023-09-19T12:35:27;16.35;;;3.38;;
33094;SDS011;19459;53.044;8.910;2023-09-19T12:38:00;15.75;;;3.65;;
33094;SDS011;19459;53.044;8.910;2023-09-19T12:40:28;9.40;;;2.72;;
33094;SDS011;19459;53.044;8.910;2023-09-19T12:42:57;10.43;;;2.72;;
33094;SDS011;19459;53.044;8.910;2023-09-19T12:45:24;8.15;;;2.88;;
33094;SDS011;19459;53.044;8.910;2023-09-19T12:51:03;10.07;;;2.72;;
33094;SDS011;19459;53.044;8.910;2023-09-19T12:53:39;12.07;;;3.53;;
33094;SDS011;19459;53.044;8.910;2023-09-19T12:56:16;7.95;;;2.78;;
33094;SDS011;19459;53.044;8.910;2023-09-19T12:58:56;12.20;;;3.45;;
33094;SDS011;19459;53.044;8.910;2023-09-19T13:01:31;11.02;;;2.42;;
33094;SDS011;19459;53.044;8.910;2023-09-19T13:06:57;10.45;;;2.85;;
33094;SDS011;19459;53.044;8.910;2023-09-19T13:09:26;10.07;;;2.65;;
33094;SDS011;19459;53.044;8.910;2023-09-19T13:12:04;11.68;;;2.97;;
33094;SDS011;19459;53.044;8.910;2023-09-19T13:15:06;13.35;;;2.95;;
33094;SDS011;19459;53.044;8.910;2023-09-19T13:17:44;18.15;;;3.63;;
33094;SDS011;19459;53.044;8.910;2023-09-19T13:20:23;11.32;;;3.67;;
33094;SDS011;19459;53.044;8.910;2023-09-19T13:22:54;13.50;;;3.40;;
33094;SDS011;19459;53.044;8.910;2023-09-19T13:25:23;11.70;;;3.53;;
33094;SDS011;19459;53.044;8.910;2023-09-19T13:30:25;10.95;;;2.70;;
33094;SDS011;19459;53.044;8.910;2023-09-19T13:33:08;11.40;;;3.00;;
33094;SDS011;19459;53.044;8.910;2023-09-19T13:35:35;12.60;;;3.20;;
33094;SDS011;19459;53.044;8.910;2023-09-19T13:38:03;10.15;;;2.83;;
33094;SDS011;19459;53.044;8.910;2023-09-19T13:40:29;9.73;;;2.83;;
33094;SDS011;19459;53.044;8.910;2023-09-19T13:43:00;9.80;;;3.08;;
33094;SDS011;19459;53.044;8.910;2023-09-19T13:45:28;13.13;;;2.67;;
33094;SDS011;19459;53.044;8.910;2023-09-19T13:47:55;9.13;;;2.60;;
33094;SDS011;19459;53.044;8.910;2023-09-19T13:50:21;18.67;;;2.75;;
33094;SDS011;19459;53.044;8.910;2023-09-19T13:52:54;11.38;;;3.45;;
33094;SDS011;19459;53.044;8.910;2023-09-19T13:55:20;9.65;;;3.03;;
33094;SDS011;19459;53.044;8.910;2023-09-19T13:57:47;10.90;;;4.20;;
33094;SDS011;19459;53.044;8.910;2023-09-19T14:00:15;11.43;;;2.75;;
33094;SDS011;19459;53.044;8.910;2023-09-19T14:02:42;12.48;;;2.58;;
33094;SDS011;19459;53.044;8.910;2023-09-19T14:05:11;13.32;;;3.63;;
33094;SDS011;19459;53.044;8.910;2023-09-19T14:07:40;19.52;;;3.95;;
33094;SDS011;19459;53.044;8.910;2023-09-19T14:10:06;13.68;;;2.40;;
33094;SDS011;19459;53.044;8.910;2023-09-19T14:12:33;14.93;;;2.53;;
33094;SDS011;19459;53.044;8.910;2023-09-19T14:15:00;10.77;;;2.63;;
33094;SDS011;19459;53.044;8.910;2023-09-19T14:17:26;7.35;;;2.15;;
33094;SDS011;19459;53.044;8.910;2023-09-19T14:19:52;13.25;;;2.92;;
33094;SDS011;19459;53.044;8.910;2023-09-19T14:22:17;9.40;;;2.70;;
33094;SDS011;19459;53.044;8.910;2023-09-19T14:24:43;12.73;;;2.90;;
33094;SDS011;19459;53.044;8.910;2023-09-19T14:27:09;14.90;;;3.13;;
33094;SDS011;19459;53.044;8.910;2023-09-19T14:29:36;11.77;;;2.47;;
33094;SDS011;19459;53.044;8.910;2023-09-19T14:32:02;8.85;;;2.60;;
33094;SDS011;19459;53.044;8.910;2023-09-19T14:34:28;13.95;;;3.28;;
33094;SDS011;19459;53.044;8.910;2023-09-19T14:36:54;9.82;;;3.47;;
33094;SDS011;19459;53.044;8.910;2023-09-19T14:39:20;11.68;;;3.53;;
33094;SDS011;19459;53.044;8.910;2023-09-19T14:41:45;10.82;;;2.40;;
33094;SDS011;19459;53.044;8.910;2023-09-19T14:44:13;6.35;;;2.63;;
33094;SDS011;19459;53.044;8.910;2023-09-19T14:46:40;10.65;;;2.10;;
33094;SDS011;19459;53.044;8.910;2023-09-19T14:49:10;10.00;;;3.10;;
33094;SDS011;19459;53.044;8.910;2023-09-19T14:51:37;9.80;;;3.03;;
33094;SDS011;19459;53.044;8.910;2023-09-19T14:54:05;13.95;;;3.60;;
33094;SDS011;19459;53.044;8.910;2023-09-19T14:56:32;9.38;;;2.42;;
33094;SDS011;19459;53.044;8.910;2023-09-19T14:58:58;10.85;;;2.45;;
33094;SDS011;19459;53.044;8.910;2023-09-19T15:01:24;7.50;;;2.35;;
33094;SDS011;19459;53.044;8.910;2023-09-19T15:03:50;9.02;;;2.88;;
33094;SDS011;19459;53.044;8.910;2023-09-19T15:06:16;9.48;;;2.67;;
33094;SDS011;19459;53.044;8.910;2023-09-19T15:08:44;11.68;;;3.38;;
33094;SDS011;19459;53.044;8.910;2023-09-19T15:11:21;11.15;;;2.72;;
33094;SDS011;19459;53.044;8.910;2023-09-19T15:13:47;11.77;;;2.40;;
33094;SDS011;19459;53.044;8.910;2023-09-19T15:16:16;12.88;;;2.63;;
33094;SDS011;19459;53.044;8.910;2023-09-19T15:18:43;7.38;;;2.47;;
33094;SDS011;19459;53.044;8.910;2023-09-19T15:21:12;11.15;;;2.95;;
33094;SDS011;19459;53.044;8.910;2023-09-19T15:23:40;8.80;;;2.00;;
33094;SDS011;19459;53.044;8.910;2023-09-19T15:26:08;10.10;;;2.40;;
33094;SDS011;19459;53.044;8.910;2023-09-19T15:28:37;6.65;;;2.33;;
33094;SDS011;19459;53.044;8.910;2023-09-19T15:31:04;12.00;;;3.35;;
33094;SDS011;19459;53.044;8.910;2023-09-19T15:33:37;9.70;;;2.60;;
33094;SDS011;19459;53.044;8.910;2023-09-19T15:36:04;9.63;;;2.35;;
33094;SDS011;19459;53.044;8.910;2023-09-19T15:41:37;12.27;;;2.45;;
33094;SDS011;19459;53.044;8.910;2023-09-19T15:44:14;8.27;;;2.08;;
33094;SDS011;19459;53.044;8.910;2023-09-19T15:46:44;6.88;;;2.13;;
33094;SDS011;19459;53.044;8.910;2023-09-19T15:49:10;12.75;;;2.30;;
33094;SDS011;19459;53.044;8.910;2023-09-19T15:51:36;8.60;;;2.38;;
33094;SDS011;19459;53.044;8.910;2023-09-19T15:54:07;7.35;;;2.13;;
33094;SDS011;19459;53.044;8.910;2023-09-19T15:56:35;10.70;;;2.45;;
33094;SDS011;19459;53.044;8.910;2023-09-19T15:59:01;9.55;;;3.00;;
33094;SDS011;19459;53.044;8.910;2023-09-19T16:01:27;8.57;;;2.70;;
33094;SDS011;19459;53.044;8.910;2023-09-19T16:03:54;11.18;;;2.97;;
33094;SDS011;19459;53.044;8.910;2023-09-19T16:06:24;15.98;;;3.38;;